Search for airport 
image banner adimage banner adimage banner ad
image banner ad

KCBF - Council Bluffs Muni

Located in Council Bluffs, United States

ICAO - CBF, IATA - CBF

Data provided by Airmate  

General information

Coordinates: N41°15'36" W95°45'31"
Elevation is 1245 feet MSL.
Magnetic variation is 05° East
View others Airports in Iowa

Operational data

Special qualification required
Current time UTC:
Current local time:
Weather
METAR: KCBF 151015Z AUTO 06005KT 10SM BKN090 19/13 A3010 RMK AO2
View NOTAMs / SUP AIP / TFR affecting this airport [VIEW]
Communications frequencies: [VIEW]

Runways:

RWY identifierQFULength (ft)Width (ft)SurfaceLDA (ft)
14141°365060CONC
32321°365060CONC
18181°5500100CONC
365500100CONC

Airport contact information

Address: Council Bluffs United States

Other aviation service providers

Flight schools

Advanced Air, Inc.

Advanced Air, Inc.

Satellite view of KCBF